createdAt,value
2023-05-06T00:00:13.359Z,100.00
2023-05-06T00:02:44.229Z,100.00
2023-05-06T00:05:12.534Z,100.00
2023-05-06T00:07:41.985Z,100.00
2023-05-06T00:10:10.732Z,100.00
2023-05-06T00:12:38.832Z,100.00
2023-05-06T00:15:09.578Z,100.00
2023-05-06T00:17:38.112Z,100.00
2023-05-06T00:20:07.558Z,100.00
2023-05-06T00:22:35.688Z,100.00
2023-05-06T00:25:04.621Z,100.00
2023-05-06T00:27:32.674Z,100.00
2023-05-06T00:30:00.800Z,100.00
2023-05-06T00:32:30.508Z,100.00
2023-05-06T00:34:58.854Z,100.00
2023-05-06T00:37:26.975Z,100.00
2023-05-06T00:39:55.263Z,100.00
2023-05-06T00:42:23.689Z,100.00
2023-05-06T00:44:51.906Z,100.00
2023-05-06T00:47:22.129Z,100.00
2023-05-06T00:49:52.199Z,100.00
2023-05-06T00:52:21.115Z,100.00
2023-05-06T00:54:49.189Z,100.00
2023-05-06T00:57:17.314Z,100.00
2023-05-06T00:59:45.440Z,100.00
2023-05-06T01:02:13.542Z,100.00
2023-05-06T01:04:42.689Z,100.00
2023-05-06T01:07:24.886Z,100.00
2023-05-06T01:09:58.506Z,100.00
2023-05-06T01:12:31.853Z,100.00
2023-05-06T01:15:08.530Z,100.00
2023-05-06T01:17:41.232Z,100.00
2023-05-06T01:20:12.807Z,100.00
2023-05-06T01:22:42.674Z,100.00
2023-05-06T01:25:20.093Z,100.00
2023-05-06T01:27:49.453Z,100.00
2023-05-06T01:30:19.328Z,100.00
2023-05-06T01:32:57.091Z,100.00
2023-05-06T01:35:34.018Z,100.00
2023-05-06T01:38:08.952Z,100.00
2023-05-06T01:40:39.508Z,100.00
2023-05-06T01:43:08.508Z,100.00
2023-05-06T01:45:38.648Z,100.00
2023-05-06T01:48:07.300Z,100.00
2023-05-06T01:50:36.956Z,100.00
2023-05-06T01:53:05.055Z,100.00
2023-05-06T01:55:33.227Z,100.00
2023-05-06T01:58:02.744Z,100.00
2023-05-06T02:00:30.894Z,100.00
2023-05-06T02:02:59.051Z,100.00
2023-05-06T02:05:27.616Z,100.00
2023-05-06T02:07:57.810Z,100.00
2023-05-06T02:10:26.308Z,100.00
2023-05-06T02:13:05.796Z,100.00
2023-05-06T02:15:33.990Z,100.00
2023-05-06T02:18:02.488Z,100.00
2023-05-06T02:20:30.553Z,100.00
2023-05-06T02:22:58.609Z,100.00
2023-05-06T02:25:26.813Z,100.00
2023-05-06T02:27:54.992Z,100.00
2023-05-06T02:30:24.431Z,100.00
2023-05-06T02:32:52.508Z,100.00
2023-05-06T02:35:20.841Z,100.00
2023-05-06T02:37:48.994Z,100.00
2023-05-06T02:40:17.169Z,100.00
2023-05-06T02:42:45.319Z,100.00
2023-05-06T02:45:14.112Z,100.00
2023-05-06T02:47:43.678Z,100.00
2023-05-06T02:50:12.202Z,100.00
2023-05-06T02:52:40.380Z,100.00
2023-05-06T02:55:09.105Z,100.00
2023-05-06T02:57:37.448Z,100.00
2023-05-06T03:00:07.508Z,100.00
2023-05-06T03:02:36.142Z,100.00
2023-05-06T03:05:06.748Z,100.00
2023-05-06T03:07:36.687Z,100.00
2023-05-06T03:10:05.969Z,100.00
2023-05-06T03:12:36.628Z,100.00
2023-05-06T03:15:05.451Z,100.00
2023-05-06T03:17:33.759Z,100.00
2023-05-06T03:20:08.324Z,100.00
2023-05-06T03:22:38.511Z,100.00
2023-05-06T03:25:07.950Z,100.00
2023-05-06T03:27:38.527Z,100.00
2023-05-06T03:30:13.758Z,100.00
2023-05-06T03:32:42.038Z,100.00
2023-05-06T03:35:14.221Z,100.00
2023-05-06T03:37:44.924Z,100.00
2023-05-06T03:40:13.670Z,100.00
2023-05-06T03:42:41.942Z,100.00
2023-05-06T03:45:11.346Z,100.00
2023-05-06T03:47:39.752Z,100.00
2023-05-06T03:50:10.623Z,100.00
2023-05-06T03:52:41.613Z,100.00
2023-05-06T03:55:11.338Z,100.00
2023-05-06T03:57:40.054Z,100.00
2023-05-06T04:00:09.973Z,100.00
2023-05-06T04:02:44.200Z,100.00
2023-05-06T04:05:19.791Z,100.00
2023-05-06T04:07:49.525Z,100.00
2023-05-06T04:10:17.766Z,100.00
2023-05-06T04:12:50.125Z,100.00
2023-05-06T04:15:23.192Z,100.00
2023-05-06T04:17:51.648Z,100.00
2023-05-06T04:20:20.488Z,100.00
2023-05-06T04:22:50.577Z,100.00
2023-05-06T04:25:19.765Z,100.00
2023-05-06T04:27:48.371Z,100.00
2023-05-06T04:30:16.809Z,100.00
2023-05-06T04:32:45.052Z,100.00
2023-05-06T04:35:13.655Z,100.00
2023-05-06T04:37:43.654Z,100.00
2023-05-06T04:40:20.684Z,100.00
2023-05-06T04:42:51.277Z,100.00
2023-05-06T04:45:24.527Z,100.00
2023-05-06T04:47:53.965Z,100.00
2023-05-06T04:50:22.172Z,100.00
2023-05-06T04:52:50.405Z,100.00
2023-05-06T04:55:21.938Z,100.00
2023-05-06T04:57:53.293Z,100.00
2023-05-06T05:00:22.353Z,100.00
2023-05-06T05:02:50.742Z,100.00
2023-05-06T05:05:19.728Z,100.00
2023-05-06T05:07:51.920Z,100.00
2023-05-06T05:10:22.165Z,100.00
2023-05-06T05:12:52.121Z,100.00
2023-05-06T05:15:21.278Z,100.00
2023-05-06T05:17:51.360Z,100.00
2023-05-06T05:20:21.878Z,100.00
2023-05-06T05:22:49.936Z,100.00
2023-05-06T05:25:18.252Z,100.00
2023-05-06T05:27:49.787Z,100.00
2023-05-06T05:30:19.459Z,100.00
2023-05-06T05:32:47.916Z,100.00
2023-05-06T05:35:18.005Z,100.00
2023-05-06T05:37:47.631Z,100.00
2023-05-06T05:40:15.792Z,100.00
2023-05-06T05:42:45.152Z,100.00
2023-05-06T05:45:23.914Z,100.00
2023-05-06T05:47:54.170Z,100.00
2023-05-06T05:50:24.088Z,100.00
2023-05-06T05:52:52.980Z,100.00
2023-05-06T05:55:22.424Z,100.00
2023-05-06T05:57:51.930Z,100.00
2023-05-06T06:00:24.084Z,100.00
2023-05-06T06:02:58.154Z,100.00
2023-05-06T06:05:26.493Z,100.00
2023-05-06T06:07:54.750Z,100.00
2023-05-06T06:10:25.660Z,100.00
2023-05-06T06:12:54.093Z,100.00
2023-05-06T06:15:26.847Z,98.12
2023-05-06T06:17:55.981Z,97.39
2023-05-06T06:20:26.832Z,96.49
2023-05-06T06:22:55.105Z,96.98
2023-05-06T06:25:23.523Z,95.78
2023-05-06T06:27:51.763Z,96.11
2023-05-06T06:30:20.043Z,94.99
2023-05-06T06:32:54.308Z,95.04
2023-05-06T06:35:23.616Z,95.02
2023-05-06T06:37:52.231Z,95.66
2023-05-06T06:40:20.642Z,96.91
2023-05-06T06:42:49.040Z,93.46
2023-05-06T06:45:40.544Z,92.25
2023-05-06T06:48:10.219Z,89.73
2023-05-06T06:50:38.381Z,89.26
2023-05-06T06:53:06.732Z,89.61
2023-05-06T06:55:35.199Z,85.41
2023-05-06T06:58:03.758Z,86.78
2023-05-06T07:00:31.924Z,84.40
2023-05-06T07:03:00.100Z,84.20
2023-05-06T07:05:29.734Z,85.38
2023-05-06T07:07:57.908Z,84.50
2023-05-06T07:10:26.134Z,79.48
2023-05-06T07:12:54.328Z,81.05
2023-05-06T07:15:22.734Z,79.76
2023-05-06T07:17:50.916Z,79.19
2023-05-06T07:20:19.221Z,78.35
2023-05-06T07:22:48.728Z,77.02
2023-05-06T07:25:16.915Z,77.13
2023-05-06T07:27:45.156Z,75.52
2023-05-06T07:30:13.900Z,80.90
2023-05-06T07:32:42.549Z,79.72
2023-05-06T07:35:11.209Z,76.84
2023-05-06T07:37:39.654Z,76.77
2023-05-06T07:40:10.699Z,76.74
2023-05-06T07:42:40.331Z,76.79
2023-05-06T07:45:10.870Z,77.09
2023-05-06T07:47:39.389Z,75.64
2023-05-06T07:50:08.524Z,75.07
2023-05-06T07:52:36.765Z,73.91
2023-05-06T07:55:05.466Z,72.77
2023-05-06T07:57:34.942Z,70.32
2023-05-06T08:00:03.403Z,67.19
2023-05-06T08:02:44.473Z,65.23
2023-05-06T08:05:13.091Z,59.63
2023-05-06T08:07:42.365Z,57.45
2023-05-06T08:10:11.548Z,53.66
2023-05-06T08:12:41.056Z,50.58
2023-05-06T08:15:10.720Z,47.92
2023-05-06T08:17:38.968Z,45.62
2023-05-06T08:20:08.205Z,41.11
2023-05-06T08:22:36.356Z,41.23
2023-05-06T08:25:04.541Z,41.46
2023-05-06T08:27:32.623Z,41.12
2023-05-06T08:30:02.064Z,37.80
2023-05-06T08:32:30.208Z,40.33
2023-05-06T08:34:59.834Z,38.39
2023-05-06T08:37:27.994Z,35.13
2023-05-06T08:39:56.903Z,34.78
2023-05-06T08:42:27.207Z,32.14
2023-05-06T08:44:57.137Z,32.05
2023-05-06T08:47:26.643Z,34.74
2023-05-06T08:49:54.728Z,33.22
2023-05-06T08:52:23.709Z,34.14
2023-05-06T08:54:58.035Z,34.21
2023-05-06T08:57:26.810Z,32.60
2023-05-06T08:59:54.898Z,33.40
2023-05-06T09:02:23.251Z,30.61
2023-05-06T09:04:54.356Z,31.35
2023-05-06T09:07:23.131Z,30.88
2023-05-06T09:09:52.160Z,30.88
2023-05-06T09:12:20.270Z,32.35
2023-05-06T09:14:51.527Z,32.39
2023-05-06T09:17:26.594Z,30.40
2023-05-06T09:19:58.042Z,31.83
2023-05-06T09:22:28.100Z,31.12
2023-05-06T09:24:57.668Z,26.98
2023-05-06T09:27:26.952Z,28.51
2023-05-06T09:30:03.144Z,27.72
2023-05-06T09:32:31.356Z,26.27
2023-05-06T09:35:01.228Z,27.04
2023-05-06T09:37:29.623Z,30.61
2023-05-06T09:39:58.989Z,28.02
2023-05-06T09:42:30.068Z,27.90
2023-05-06T09:45:01.380Z,25.25
2023-05-06T09:47:34.891Z,28.23
2023-05-06T09:50:05.451Z,25.42
2023-05-06T09:52:33.552Z,27.40
2023-05-06T09:55:02.659Z,29.55
2023-05-06T09:57:33.427Z,28.02
2023-05-06T10:00:02.620Z,28.86
2023-05-06T10:02:42.093Z,29.66
2023-05-06T10:05:13.817Z,26.41
2023-05-06T10:07:42.880Z,26.62
2023-05-06T10:10:13.080Z,24.93
2023-05-06T10:12:41.400Z,27.29
2023-05-06T10:15:11.146Z,23.70
2023-05-06T10:17:40.835Z,25.06
2023-05-06T10:20:14.645Z,25.81
2023-05-06T10:22:53.539Z,26.75
2023-05-06T10:25:31.230Z,26.58
2023-05-06T10:28:00.145Z,27.71
2023-05-06T10:30:31.342Z,29.05
2023-05-06T10:33:04.617Z,28.43
2023-05-06T10:35:49.233Z,29.35
2023-05-06T10:38:24.165Z,29.74
2023-05-06T10:40:53.749Z,28.95
2023-05-06T10:43:28.792Z,32.16
2023-05-06T10:46:02.281Z,26.87
2023-05-06T10:48:30.985Z,26.97
2023-05-06T10:51:24.404Z,25.98
2023-05-06T10:54:02.434Z,24.14
2023-05-06T10:56:32.778Z,24.16
2023-05-06T10:59:07.914Z,23.87
2023-05-06T11:01:36.778Z,23.22
2023-05-06T11:04:09.956Z,21.82
2023-05-06T11:06:44.761Z,19.63
2023-05-06T11:09:20.561Z,21.71
2023-05-06T11:11:51.050Z,20.10
2023-05-06T11:14:28.514Z,20.31
2023-05-06T11:16:58.055Z,23.39
2023-05-06T11:19:27.466Z,24.65
2023-05-06T11:21:58.367Z,25.25
2023-05-06T11:24:28.550Z,25.72
2023-05-06T11:26:57.266Z,26.13
2023-05-06T11:29:25.852Z,24.94
2023-05-06T11:31:54.454Z,27.17
2023-05-06T11:34:25.094Z,26.63
2023-05-06T11:37:00.708Z,28.51
2023-05-06T11:39:30.934Z,28.55
2023-05-06T11:41:59.997Z,28.60
2023-05-06T11:44:29.807Z,26.52
2023-05-06T11:47:02.139Z,29.60
2023-05-06T11:49:30.227Z,26.92
2023-05-06T11:51:59.698Z,27.33
2023-05-06T11:54:28.434Z,28.42
2023-05-06T11:56:57.468Z,29.43
2023-05-06T11:59:31.589Z,30.45
2023-05-06T12:02:01.306Z,32.77
2023-05-06T12:04:29.910Z,34.27
2023-05-06T12:06:59.350Z,34.13
2023-05-06T12:09:27.970Z,36.71
2023-05-06T12:11:56.324Z,35.55
2023-05-06T12:14:24.574Z,37.86
2023-05-06T12:16:55.962Z,37.55
2023-05-06T12:19:25.581Z,37.67
2023-05-06T12:21:53.759Z,40.91
2023-05-06T12:24:30.161Z,49.21
2023-05-06T12:26:58.347Z,42.41
2023-05-06T12:29:26.466Z,48.58
2023-05-06T12:32:09.520Z,48.01
2023-05-06T12:34:38.367Z,53.30
2023-05-06T12:37:08.666Z,54.29
2023-05-06T12:39:39.565Z,63.34
2023-05-06T12:42:07.958Z,64.86
2023-05-06T12:44:37.879Z,61.58
2023-05-06T12:47:07.720Z,56.72
2023-05-06T12:49:47.229Z,52.57
2023-05-06T12:52:15.624Z,49.50
2023-05-06T12:54:46.006Z,44.00
2023-05-06T12:57:14.393Z,44.27
2023-05-06T12:59:42.685Z,40.24
2023-05-06T13:02:11.227Z,39.41
2023-05-06T13:04:39.530Z,38.13
2023-05-06T13:07:07.736Z,39.31
2023-05-06T13:09:35.894Z,39.07
2023-05-06T13:12:05.956Z,42.44
2023-05-06T13:14:34.039Z,37.85
2023-05-06T13:17:04.985Z,39.96
2023-05-06T13:19:33.572Z,39.20
2023-05-06T13:22:02.072Z,38.04
2023-05-06T13:24:30.893Z,35.76
2023-05-06T13:27:00.853Z,36.75
2023-05-06T13:29:30.696Z,39.54
2023-05-06T13:31:58.800Z,37.71
2023-05-06T13:34:26.987Z,37.53
2023-05-06T13:36:56.640Z,40.13
2023-05-06T13:39:25.230Z,38.72
2023-05-06T13:41:54.254Z,37.50
2023-05-06T13:44:22.717Z,37.98
2023-05-06T13:46:52.714Z,37.37
2023-05-06T13:49:20.892Z,37.34
2023-05-06T13:51:49.081Z,39.33
2023-05-06T13:54:17.146Z,38.81
2023-05-06T13:56:45.174Z,39.44
2023-05-06T13:59:14.064Z,38.00
2023-05-06T14:01:43.192Z,39.09
2023-05-06T14:04:12.758Z,41.78
2023-05-06T14:06:40.897Z,41.04
2023-05-06T14:09:09.290Z,40.27
2023-05-06T14:11:37.433Z,41.83
2023-05-06T14:14:07.547Z,42.20
2023-05-06T14:16:35.755Z,41.56
2023-05-06T14:19:04.800Z,39.83
2023-05-06T14:21:35.012Z,39.41
2023-05-06T14:24:05.047Z,42.10
2023-05-06T14:26:34.367Z,41.14
2023-05-06T14:29:02.538Z,40.21
2023-05-06T14:31:30.648Z,40.92
2023-05-06T14:33:58.688Z,39.43
2023-05-06T14:36:26.790Z,39.24
2023-05-06T14:38:56.219Z,40.10
2023-05-06T14:41:24.362Z,40.60
2023-05-06T14:43:52.462Z,40.52
2023-05-06T14:46:20.795Z,40.68
2023-05-06T14:48:49.017Z,40.08
2023-05-06T14:51:17.096Z,40.66
2023-05-06T14:53:45.384Z,41.76
2023-05-06T14:56:14.891Z,42.55
2023-05-06T14:58:42.943Z,41.80
2023-05-06T15:01:11.148Z,40.30
2023-05-06T15:03:39.323Z,41.06
2023-05-06T15:06:07.851Z,40.67
2023-05-06T15:08:36.590Z,41.07
2023-05-06T15:11:04.692Z,42.35
2023-05-06T15:13:34.133Z,41.92
2023-05-06T15:16:02.291Z,41.51
2023-05-06T15:18:31.053Z,41.02
2023-05-06T15:21:01.540Z,41.13
2023-05-06T15:23:29.689Z,41.46
2023-05-06T15:25:58.297Z,40.41
2023-05-06T15:28:26.438Z,40.64
2023-05-06T15:30:55.967Z,41.29
2023-05-06T15:33:24.111Z,42.25
2023-05-06T15:35:52.196Z,43.04
2023-05-06T15:38:20.354Z,43.59
2023-05-06T15:40:51.730Z,44.63
2023-05-06T15:43:23.578Z,44.06
2023-05-06T15:45:53.086Z,44.62
2023-05-06T15:48:22.657Z,45.87
2023-05-06T15:50:50.771Z,46.39
2023-05-06T15:53:20.685Z,46.25
2023-05-06T15:55:56.805Z,45.84
2023-05-06T15:58:30.230Z,47.23
2023-05-06T16:00:58.348Z,48.58
2023-05-06T16:03:28.066Z,48.12
2023-05-06T16:05:59.068Z,47.73
2023-05-06T16:08:27.335Z,48.52
2023-05-06T16:10:55.439Z,49.65
2023-05-06T16:13:23.625Z,52.67
2023-05-06T16:15:51.871Z,55.37
2023-05-06T16:18:19.942Z,57.38
2023-05-06T16:20:49.450Z,57.85
2023-05-06T16:23:17.567Z,60.13
2023-05-06T16:25:45.722Z,61.45
2023-05-06T16:28:13.742Z,62.23
2023-05-06T16:30:44.672Z,63.79
2023-05-06T16:33:13.319Z,65.36
2023-05-06T16:35:41.813Z,67.09
2023-05-06T16:38:11.507Z,67.24
2023-05-06T16:40:43.689Z,68.94
2023-05-06T16:43:11.823Z,69.29
2023-05-06T16:45:45.226Z,69.45
2023-05-06T16:48:14.173Z,67.49
2023-05-06T16:50:42.715Z,68.41
2023-05-06T16:53:12.221Z,68.51
2023-05-06T16:55:40.242Z,73.55
2023-05-06T16:58:08.417Z,74.26
2023-05-06T17:00:36.832Z,76.36
2023-05-06T17:03:05.808Z,80.64
2023-05-06T17:05:34.046Z,83.03
2023-05-06T17:30:34.044Z,89.21
2023-05-06T17:33:02.611Z,89.99
2023-05-06T17:35:30.767Z,89.43
2023-05-06T17:37:58.910Z,90.51
2023-05-06T17:40:27.032Z,89.75
2023-05-06T17:42:55.039Z,89.88
2023-05-06T17:45:25.283Z,91.78
2023-05-06T17:47:54.750Z,93.80
2023-05-06T17:50:22.888Z,93.35
2023-05-06T17:52:52.982Z,95.32
2023-05-06T17:55:23.376Z,97.15
2023-05-06T17:57:52.672Z,99.03
2023-05-06T18:00:21.703Z,100.00
2023-05-06T18:02:49.901Z,99.12
2023-05-06T18:05:19.590Z,100.00
2023-05-06T18:07:48.050Z,100.00
2023-05-06T18:10:16.186Z,100.00
2023-05-06T18:12:45.513Z,100.00
2023-05-06T18:15:13.870Z,100.00
2023-05-06T18:17:41.964Z,100.00
2023-05-06T18:20:11.321Z,100.00
2023-05-06T18:22:42.950Z,100.00
2023-05-06T18:25:11.851Z,100.00
2023-05-06T18:27:40.267Z,100.00
2023-05-06T18:30:09.514Z,100.00
2023-05-06T18:32:37.660Z,100.00
2023-05-06T18:35:06.247Z,100.00
2023-05-06T18:37:34.382Z,100.00
2023-05-06T18:40:04.463Z,100.00
2023-05-06T18:42:33.821Z,100.00
2023-05-06T18:45:02.171Z,100.00
2023-05-06T18:47:32.158Z,99.21
2023-05-06T18:50:00.831Z,99.88
2023-05-06T18:52:28.997Z,100.00
2023-05-06T18:54:57.089Z,100.00
2023-05-06T18:57:27.769Z,100.00
2023-05-06T18:59:56.449Z,100.00
2023-05-06T19:02:24.524Z,100.00
2023-05-06T19:04:52.591Z,100.00
2023-05-06T19:07:20.750Z,100.00
2023-05-06T19:09:48.835Z,100.00
2023-05-06T19:12:18.355Z,100.00
2023-05-06T19:14:47.851Z,100.00
2023-05-06T19:17:16.228Z,100.00
2023-05-06T19:19:47.015Z,100.00
2023-05-06T19:22:15.566Z,100.00
2023-05-06T19:24:43.838Z,100.00
2023-05-06T19:27:12.083Z,100.00
2023-05-06T19:29:40.232Z,100.00
2023-05-06T19:32:09.903Z,100.00
2023-05-06T19:34:38.071Z,100.00
2023-05-06T19:37:06.186Z,100.00
2023-05-06T19:39:34.268Z,100.00
2023-05-06T19:42:02.467Z,100.00
2023-05-06T19:44:30.574Z,100.00
2023-05-06T19:46:58.740Z,100.00
2023-05-06T19:49:28.232Z,100.00
2023-05-06T19:51:56.368Z,100.00
2023-05-06T19:54:24.450Z,100.00
2023-05-06T19:56:53.105Z,100.00
2023-05-06T19:59:21.225Z,100.00
2023-05-06T20:01:49.400Z,100.00
2023-05-06T20:04:17.993Z,100.00
2023-05-06T20:06:47.459Z,100.00
2023-05-06T20:09:15.550Z,100.00
2023-05-06T20:11:43.664Z,100.00
2023-05-06T20:14:11.777Z,100.00
2023-05-06T20:16:39.986Z,100.00
2023-05-06T20:19:08.525Z,100.00
2023-05-06T20:21:37.008Z,100.00
2023-05-06T20:24:06.850Z,100.00
2023-05-06T20:26:34.876Z,100.00
2023-05-06T20:29:02.990Z,100.00
2023-05-06T20:31:31.380Z,100.00
2023-05-06T20:33:59.435Z,100.00
2023-05-06T20:36:28.037Z,100.00
2023-05-06T20:38:56.156Z,100.00
2023-05-06T20:41:25.763Z,100.00
2023-05-06T20:43:54.032Z,100.00
2023-05-06T20:46:22.190Z,100.00
2023-05-06T20:48:51.535Z,100.00
2023-05-06T20:51:20.016Z,100.00
2023-05-06T20:53:48.284Z,100.00
2023-05-06T20:56:22.087Z,100.00
2023-05-06T20:58:52.037Z,100.00
2023-05-06T21:01:20.564Z,100.00
2023-05-06T21:03:48.746Z,100.00
2023-05-06T21:06:18.233Z,100.00
2023-05-06T21:08:46.968Z,100.00
2023-05-06T21:11:15.264Z,100.00
2023-05-06T21:13:43.410Z,100.00
2023-05-06T21:16:12.888Z,100.00
2023-05-06T21:18:41.067Z,100.00
2023-05-06T21:21:09.769Z,100.00
2023-05-06T21:23:37.898Z,100.00
2023-05-06T21:26:06.181Z,100.00
2023-05-06T21:28:34.473Z,100.00
2023-05-06T21:31:04.280Z,100.00
2023-05-06T21:33:33.883Z,100.00
2023-05-06T21:36:01.986Z,100.00
2023-05-06T21:38:30.085Z,100.00
2023-05-06T21:40:58.242Z,100.00
2023-05-06T21:43:26.282Z,100.00
2023-05-06T21:45:54.389Z,100.00
2023-05-06T21:48:22.639Z,100.00
2023-05-06T21:50:54.992Z,100.00
2023-05-06T21:53:23.136Z,100.00
2023-05-06T21:55:51.203Z,100.00
2023-05-06T21:58:19.289Z,100.00
2023-05-06T22:00:47.400Z,100.00
2023-05-06T22:03:15.720Z,100.00
2023-05-06T22:05:44.032Z,100.00
2023-05-06T22:08:13.523Z,100.00
2023-05-06T22:10:41.568Z,100.00
2023-05-06T22:13:09.833Z,100.00
2023-05-06T22:15:37.997Z,100.00
2023-05-06T22:18:08.729Z,100.00
2023-05-06T22:20:37.760Z,100.00
2023-05-06T22:23:05.929Z,100.00
2023-05-06T22:25:35.374Z,100.00
2023-05-06T22:28:03.686Z,100.00
2023-05-06T22:30:31.760Z,100.00
2023-05-06T22:32:59.859Z,100.00
2023-05-06T22:35:27.955Z,100.00
2023-05-06T22:37:56.223Z,100.00
2023-05-06T22:40:24.608Z,100.00
2023-05-06T22:42:54.083Z,100.00
2023-05-06T22:45:22.410Z,100.00
2023-05-06T22:47:50.524Z,100.00
2023-05-06T22:50:18.732Z,100.00
2023-05-06T22:52:46.984Z,100.00
2023-05-06T22:55:16.139Z,100.00
2023-05-06T22:57:44.822Z,100.00
2023-05-06T23:00:14.840Z,100.00
2023-05-06T23:02:42.981Z,100.00
2023-05-06T23:05:11.478Z,100.00
2023-05-06T23:07:39.868Z,100.00
2023-05-06T23:10:09.297Z,100.00
2023-05-06T23:12:37.379Z,100.00
2023-05-06T23:15:07.431Z,100.00
2023-05-06T23:17:37.197Z,100.00
2023-05-06T23:20:06.009Z,100.00
2023-05-06T23:22:34.188Z,100.00
2023-05-06T23:25:02.210Z,100.00
2023-05-06T23:27:30.272Z,100.00
2023-05-06T23:29:58.332Z,100.00
2023-05-06T23:32:26.443Z,100.00
2023-05-06T23:34:55.857Z,100.00
2023-05-06T23:37:23.838Z,100.00
2023-05-06T23:39:52.039Z,100.00
2023-05-06T23:42:21.289Z,100.00
2023-05-06T23:44:49.851Z,100.00
2023-05-06T23:47:18.005Z,100.00
2023-05-06T23:49:46.186Z,100.00
2023-05-06T23:52:15.743Z,100.00
2023-05-06T23:54:44.052Z,100.00
2023-05-06T23:57:12.066Z,100.00
2023-05-06T23:59:40.141Z,100.00
